Time;durP1;ratioP1;P1;durP2;ratioP2;P2;SDS_P1;SDS_P2;PMS_P1;PMS_P2;Temp;Humidity;BMP_temperature;BMP_pressure;BME280_temperature;BME280_humidity;BME280_pressure;Samples;Min_cycle;Max_cycle;Signal;HPM_P1;HPM_P2
2022/11/02 00:01:38;;;;;;;20.95;11.63;;;19.60;92.60;;;19.51;62.94;99117.63;5024481;28;20116;-76
2022/11/02 00:04:04;;;;;;;22.30;12.20;;;19.60;92.60;;;19.52;62.87;99116.50;5021098;28;20411;-76
2022/11/02 00:06:30;;;;;;;23.75;13.05;;;19.60;92.50;;;19.56;63.12;99119.41;5053158;28;20048;-76
2022/11/02 00:08:56;;;;;;;29.05;13.90;;;19.60;92.70;;;19.57;63.33;99116.34;5050974;28;20040;-76
2022/11/02 00:11:22;;;;;;;21.33;13.07;;;19.60;92.70;;;19.55;63.20;99109.53;5053064;28;20046;-76
2022/11/02 00:13:48;;;;;;;23.65;12.32;;;19.60;92.50;;;19.52;63.00;99116.50;5064920;28;20102;-76
2022/11/02 00:16:14;;;;;;;27.40;13.23;;;19.60;92.50;;;19.52;62.94;99114.56;5023380;28;20407;-76
2022/11/02 00:18:41;;;;;;;23.92;12.43;;;19.60;92.40;;;19.52;62.91;99116.50;5021756;28;20044;-77
2022/11/02 00:21:07;;;;;;;26.30;12.70;;;19.60;92.40;;;19.51;63.15;99120.38;5036101;28;20093;-77
2022/11/02 00:23:33;;;;;;;27.83;13.48;;;19.60;92.60;;;19.56;63.58;99124.91;5029757;28;20049;-77
2022/11/02 00:26:00;;;;;;;20.55;12.20;;;19.60;92.70;;;19.57;63.38;99119.09;5036597;28;20572;-77
2022/11/02 00:28:27;;;;;;;25.25;13.68;;;19.60;92.60;;;19.55;62.98;99118.59;5021182;28;20411;-77
2022/11/02 00:30:53;;;;;;;20.23;12.00;;;19.60;92.40;;;19.52;63.04;99122.81;5032226;28;20083;-77
2022/11/02 00:33:20;;;;;;;18.92;11.10;;;19.60;92.40;;;19.52;62.95;99127.50;5021199;28;20106;-76
2022/11/02 00:35:45;;;;;;;20.50;11.48;;;19.60;92.40;;;19.52;62.92;99125.56;5051870;28;20037;-76
2022/11/02 00:38:12;;;;;;;17.17;10.27;;;19.60;92.40;;;19.55;63.38;99126.06;5042801;28;20048;-77
2022/11/02 00:40:38;;;;;;;29.08;13.82;;;19.60;92.70;;;19.55;63.49;99126.84;5049423;28;20440;-77
2022/11/02 00:43:05;;;;;;;22.63;11.77;;;19.60;92.60;;;19.51;63.49;99140.47;5040666;28;20450;-77
2022/11/02 00:45:31;;;;;;;21.67;11.75;;;19.60;92.60;;;19.52;62.83;99135.78;5054158;28;20036;-76
2022/11/02 00:47:57;;;;;;;16.65;10.73;;;19.60;92.80;;;19.49;63.21;99128.97;5017217;28;20037;-76
2022/11/02 00:50:23;;;;;;;19.38;10.40;;;19.60;92.40;;;19.49;63.03;99128.16;5036356;28;20064;-77
2022/11/02 00:52:49;;;;;;;18.35;11.35;;;19.60;92.40;;;19.50;63.03;99132.53;5066273;28;20526;-76
2022/11/02 00:55:16;;;;;;;18.40;10.88;;;19.60;92.40;;;19.51;63.41;99126.72;5024888;28;20036;-77
2022/11/02 00:57:43;;;;;;;23.10;12.00;;;19.60;92.60;;;19.54;63.43;99128.00;5034009;28;20045;-77
2022/11/02 01:00:10;;;;;;;18.63;11.75;;;19.60;92.70;;;19.50;63.29;99129.78;5056465;28;20062;-77
2022/11/02 01:02:37;;;;;;;17.95;10.82;;;19.60;92.60;;;19.51;63.15;99134.13;5012383;28;20457;-76
2022/11/02 01:05:04;;;;;;;17.63;9.90;;;19.60;92.60;;;19.48;63.21;99127.34;5048848;28;20045;-76
2022/11/02 01:07:30;;;;;;;18.67;9.88;;;19.50;92.50;;;19.46;63.04;99134.31;5042157;28;20040;-76
2022/11/02 01:09:56;;;;;;;18.70;11.68;;;19.60;92.50;;;19.50;63.14;99124.28;5050099;28;20047;-76
2022/11/02 01:12:22;;;;;;;18.83;11.07;;;19.60;92.60;;;19.49;63.49;99128.97;5048354;28;20037;-77
2022/11/02 01:14:48;;;;;;;17.75;11.05;;;19.60;92.60;;;19.50;63.81;99121.53;5039980;28;20081;-77
2022/11/02 01:17:16;;;;;;;17.45;10.48;;;19.60;92.70;;;19.50;63.09;99125.06;5053646;28;20046;-76
2022/11/02 01:19:42;;;;;;;15.63;9.40;;;19.60;92.40;;;19.49;63.15;99119.91;5033764;28;20435;-76
2022/11/02 01:22:08;;;;;;;20.45;10.30;;;19.60;92.40;;;19.47;63.13;99122.97;5053024;28;20032;-76
2022/11/02 01:24:34;;;;;;;18.25;10.57;;;19.60;92.40;;;19.48;62.84;99123.78;5026147;28;20041;-76
2022/11/02 01:27:00;;;;;;;16.73;11.07;;;19.60;92.40;;;19.50;63.71;99121.53;5023505;28;20066;-76
2022/11/02 01:29:26;;;;;;;19.60;10.48;;;19.60;92.70;;;19.49;63.54;99126.22;5037246;28;20040;-76
2022/11/02 01:31:53;;;;;;;16.70;9.85;;;19.60;92.60;;;19.48;63.59;99130.09;5065895;28;20045;-76
2022/11/02 01:34:19;;;;;;;15.65;9.65;;;19.60;92.50;;;19.48;63.18;99124.59;5066945;28;20464;-76
2022/11/02 01:36:46;;;;;;;16.45;10.25;;;19.60;92.40;;;19.48;63.19;99132.03;5030249;28;20107;-77
2022/11/02 01:39:13;;;;;;;15.95;9.80;;;19.60;92.40;;;19.45;63.11;99128.00;5051891;28;20048;-76
2022/11/02 01:41:40;;;;;;;14.88;9.40;;;19.60;92.40;;;19.48;63.29;99129.28;5051356;28;20041;-77
2022/11/02 01:44:32;;;;;;;15.43;9.57;;;19.60;92.40;;;19.49;63.80;99130.91;5037079;28;20040;-77
2022/11/02 01:47:16;;;;;;;17.00;9.32;;;19.60;92.70;;;19.48;63.89;99132.03;5033898;28;20043;-76
2022/11/02 01:49:43;;;;;;;15.95;9.98;;;19.60;92.70;;;19.46;63.29;99123.28;5051848;28;20507;-76
2022/11/02 01:52:41;;;;;;;21.02;10.57;;;19.60;92.40;;;19.44;63.31;99131.09;5047893;28;20037;-76
2022/11/02 01:55:15;;;;;;;14.90;8.93;;;19.50;92.40;;;19.43;63.19;99124.75;5064928;28;20133;-76
2022/11/02 01:57:46;;;;;;;16.50;9.50;;;19.50;92.40;;;19.46;63.15;99134.31;5054027;28;20116;-76
2022/11/02 02:00:14;;;;;;;13.20;9.15;;;19.50;92.50;;;19.45;63.92;99125.25;5033557;28;20537;-76
2022/11/02 02:03:09;;;;;;;14.48;9.85;;;19.50;92.60;;;19.49;63.84;99128.16;5037924;28;20045;-76
2022/11/02 02:05:40;;;;;;;16.00;8.70;;;19.60;92.70;;;19.44;63.22;99126.38;5046511;28;20068;-76
2022/11/02 02:08:07;;;;;;;13.68;8.05;;;19.60;92.50;;;19.42;63.44;99125.09;5036523;28;20049;-76
2022/11/02 02:10:34;;;;;;;17.02;9.57;;;19.50;92.40;;;19.41;63.28;99128.97;5024055;28;20040;-76
2022/11/02 02:13:00;;;;;;;14.05;9.23;;;19.50;92.40;;;19.43;63.38;99129.44;5018858;28;20041;-76
2022/11/02 02:15:35;;;;;;;12.82;9.18;;;19.50;92.40;;;19.43;63.67;99122.00;5047972;28;20045;-76
2022/11/02 02:18:19;;;;;;;15.88;9.02;;;19.50;92.60;;;19.45;63.64;99125.25;5039723;28;20122;-76
2022/11/02 02:20:50;;;;;;;14.55;8.43;;;19.60;92.70;;;19.43;63.44;99130.25;5049359;28;20041;-76
2022/11/02 02:23:54;;;;;;;13.30;8.48;;;19.50;92.50;;;19.41;63.38;99123.47;5065808;28;20472;-77
2022/11/02 02:26:45;;;;;;;16.40;9.30;;;19.50;92.50;;;19.40;63.18;99130.09;5025332;28;20088;-77
2022/11/02 02:29:21;;;;;;;14.32;8.57;;;19.50;92.40;;;19.39;63.31;99131.25;5053563;28;20045;-77
2022/11/02 02:31:55;;;;;;;13.05;8.43;;;19.50;92.50;;;19.42;63.74;99133.34;5031657;28;20037;-77
2022/11/02 02:34:52;;;;;;;13.35;8.45;;;19.40;92.60;;;19.42;63.95;99133.34;5063565;28;20044;-77
2022/11/02 02:37:33;;;;;;;13.23;8.45;;;19.50;92.70;;;19.40;63.65;99124.59;5039462;28;20439;-77
2022/11/02 02:40:51;;;;;;;12.48;8.25;;;19.50;92.50;;;19.39;63.39;99131.25;5061649;28;20098;-76
2022/11/02 02:43:41;;;;;;;12.32;8.13;;;19.50;92.50;;;19.37;63.06;99142.56;5043155;28;20048;-76
2022/11/02 02:46:20;;;;;;;13.73;8.93;;;19.40;92.50;;;19.38;63.26;99143.38;5047015;28;20086;-76
2022/11/02 02:48:47;;;;;;;17.20;9.82;;;19.40;92.50;;;19.41;63.89;99146.31;5037022;28;20052;-76
2022/11/02 02:51:22;;;;;;;14.23;8.80;;;19.50;92.70;;;19.40;64.22;99149.38;5013604;28;20481;-76
2022/11/02 02:53:52;;;;;;;11.05;7.80;;;19.50;92.70;;;19.37;63.64;99152.75;5028138;28;20523;-77
2022/11/02 02:56:20;;;;;;;13.13;7.90;;;19.50;92.60;;;19.35;63.49;99150.31;5047709;28;20093;-76
2022/11/02 02:59:06;;;;;;;12.25;8.38;;;19.50;92.50;;;19.35;63.73;99157.78;5038565;28;20119;-76
2022/11/02 03:01:33;;;;;;;13.50;8.27;;;19.40;92.50;;;19.37;63.49;99161.03;5033894;28;20041;-77
2022/11/02 03:03:59;;;;;;;15.20;7.85;;;19.50;92.50;;;19.38;63.95;99154.38;5054285;28;20048;-76
2022/11/02 03:06:33;;;;;;;12.65;8.20;;;19.50;92.70;;;19.36;64.11;99160.22;5033073;28;20048;-76
2022/11/02 03:09:05;;;;;;;12.73;8.38;;;19.50;92.70;;;19.38;63.89;99157.13;5018111;28;20083;-76
2022/11/02 03:11:32;;;;;;;11.43;7.20;;;19.50;92.60;;;19.34;63.64;99158.91;5040044;28;20047;-77
2022/11/02 03:14:15;;;;;;;11.98;8.02;;;19.50;92.50;;;19.33;63.57;99155.34;5040315;28;20486;-76
2022/11/02 03:17:18;;;;;;;10.32;7.18;;;19.40;92.50;;;19.33;63.53;99162.78;5058660;28;20041;-76
2022/11/02 03:19:52;;;;;;;11.05;7.53;;;19.40;92.50;;;19.34;63.95;99153.41;5043482;28;20687;-76
2022/11/02 03:22:27;;;;;;;12.65;8.32;;;19.40;92.70;;;19.36;63.97;99156.63;5021641;28;20064;-77
2022/11/02 03:25:19;;;;;;;12.50;8.05;;;19.40;92.70;;;19.32;63.92;99161.97;5062296;28;20059;-76
2022/11/02 03:28:23;;;;;;;10.98;7.28;;;19.40;92.60;;;19.31;63.78;99157.63;5062979;28;20048;-76
2022/11/02 03:30:56;;;;;;;13.93;8.35;;;19.40;92.60;;;19.29;63.74;99162.63;5017619;28;20053;-76
2022/11/02 03:33:53;;;;;;;14.27;7.93;;;19.40;92.60;;;19.28;63.66;99156.31;5014210;28;20045;-77
2022/11/02 03:36:22;;;;;;;11.45;7.22;;;19.40;92.60;;;19.28;64.12;99167.34;5038480;28;20061;-77
2022/11/02 03:39:03;;;;;;;11.57;7.88;;;19.40;92.70;;;19.30;64.29;99170.53;5010167;28;20395;-76
2022/11/02 03:41:30;;;;;;;12.30;7.47;;;19.40;92.70;;;19.28;64.27;99170.09;5031292;28;20047;-76
2022/11/02 03:44:06;;;;;;;14.48;8.05;;;19.40;92.60;;;19.27;63.78;99165.69;5035568;28;20089;-76
2022/11/02 03:46:33;;;;;;;13.02;7.75;;;19.40;92.50;;;19.25;64.01;99167.94;5047408;28;20033;-77
2022/11/02 03:48:59;;;;;;;12.40;6.95;;;19.40;92.60;;;19.26;63.80;99166.03;5048391;28;20049;-77
2022/11/02 03:51:24;;;;;;;9.20;6.72;;;19.30;92.50;;;19.24;63.88;99160.84;5044674;28;20048;-77
2022/11/02 03:54:01;;;;;;;10.50;7.50;;;19.40;92.60;;;19.25;63.32;99162.44;5027109;28;20039;-76
2022/11/02 03:56:31;;;;;;;9.82;6.05;;;19.30;92.40;;;19.20;63.05;99162.59;5016122;28;20045;-77
2022/11/02 03:58:58;;;;;;;8.98;6.65;;;19.30;92.30;;;19.21;62.90;99160.66;5026160;28;20037;-76
2022/11/02 04:01:23;;;;;;;8.63;6.18;;;19.30;92.30;;;19.18;62.71;99167.63;5023418;28;20037;-76
2022/11/02 04:03:50;;;;;;;11.68;7.35;;;19.20;92.20;;;19.23;63.32;99175.75;5024501;28;20045;-76
2022/11/02 04:06:15;;;;;;;8.90;5.72;;;19.30;92.60;;;19.27;63.48;99179.44;5018721;28;20037;-76
2022/11/02 04:08:46;;;;;;;8.85;6.03;;;19.30;92.60;;;19.24;62.97;99177.34;5044803;28;20044;-76
2022/11/02 04:16:42;;;;;;;8.43;6.05;;;19.30;92.30;;;19.15;62.43;99170.22;5032899;28;20037;-75
2022/11/02 04:19:27;;;;;;;9.05;5.63;;;19.20;92.20;;;19.20;63.06;99183.81;5046770;28;20041;-76
2022/11/02 04:27:24;;;;;;;7.78;5.53;;;19.20;92.40;;;19.14;62.57;99188.66;5037920;28;20498;-77
2022/11/02 04:29:50;;;;;;;9.98;5.32;;;19.20;92.20;;;19.15;62.34;99190.25;5062656;28;20037;-76
2022/11/02 04:33:31;;;;;;;9.55;5.82;;;19.20;92.20;;;19.08;62.50;99195.41;5029857;28;20049;-77
2022/11/02 04:35:06;;;;;;;7.50;5.00;;;19.20;92.20;;;19.14;62.55;99190.59;5031519;28;20044;-78
2022/11/02 04:40:31;;;;;;;7.55;5.68;;;19.20;92.50;;;19.15;63.37;99187.50;5050695;28;20349;-78
2022/11/02 04:42:57;;;;;;;7.90;5.18;;;19.20;92.40;;;19.11;62.64;99194.81;5045319;28;20162;-77
2022/11/02 04:45:23;;;;;;;9.15;5.57;;;19.20;92.20;;;19.09;62.46;99195.09;5043728;28;20051;-77
2022/11/02 04:47:49;;;;;;;11.00;5.15;;;19.20;92.20;;;19.12;62.05;99195.59;5047096;28;20049;-76
2022/11/02 04:50:16;;;;;;;6.35;5.28;;;19.20;92.20;;;19.13;62.49;99202.72;5063007;28;20508;-79
2022/11/02 04:52:42;;;;;;;6.63;5.03;;;19.20;92.20;;;19.14;63.21;99193.34;5072841;28;20025;-79
2022/11/02 04:55:08;;;;;;;12.43;5.13;;;19.20;92.60;;;19.14;63.49;99193.34;5031740;28;20550;-79
2022/11/02 04:57:34;;;;;;;6.68;5.35;;;19.10;92.50;;;19.16;63.31;99196.56;5050813;28;20040;-79
2022/11/02 05:00:00;;;;;;;6.93;5.13;;;19.20;92.40;;;19.06;62.41;99194.94;5037854;28;20036;-79
2022/11/02 05:02:26;;;;;;;10.05;5.97;;;19.20;92.20;;;19.08;62.40;99198.16;5053946;28;20040;-79
2022/11/02 05:04:52;;;;;;;6.75;5.30;;;19.20;92.20;;;19.08;62.07;99206.41;5055621;28;20396;-79
2022/11/02 05:07:18;;;;;;;5.05;4.32;;;19.10;92.20;;;19.07;62.24;99199.31;5041175;28;20048;-79
2022/11/02 05:09:45;;;;;;;10.00;5.97;;;19.10;92.20;;;19.07;62.94;99211.09;5053959;28;20047;-79
2022/11/02 05:12:11;;;;;;;6.50;5.35;;;19.10;92.40;;;19.11;62.93;99204.97;5035116;28;20045;-79
2022/11/02 05:14:37;;;;;;;7.50;5.53;;;19.20;92.50;;;19.09;62.29;99208.06;5057478;28;20159;-79
2022/11/02 05:17:03;;;;;;;6.72;5.15;;;19.20;92.20;;;19.05;62.00;99205.13;5063811;28;20738;-79
2022/11/02 05:19:29;;;;;;;8.20;5.60;;;19.10;92.20;;;19.05;61.74;99204.31;5059387;28;20511;-79
2022/11/02 05:21:55;;;;;;;6.97;5.05;;;19.10;92.20;;;19.02;62.18;99211.25;5009428;28;20061;-79
2022/11/02 05:24:21;;;;;;;7.60;5.13;;;19.00;92.10;;;19.05;62.19;99204.31;5059582;28;20143;-79
2022/11/02 05:26:47;;;;;;;6.07;4.45;;;19.00;92.20;;;19.10;62.19;99209.66;5055046;28;20060;-79
2022/11/02 05:29:14;;;;;;;7.63;5.13;;;19.10;92.40;;;19.09;62.75;99219.06;5039158;28;20111;-79
2022/11/02 05:31:39;;;;;;;6.93;4.75;;;19.10;92.30;;;19.06;61.87;99211.44;5037605;28;20177;-79
2022/11/02 05:34:06;;;;;;;5.53;4.97;;;19.10;92.20;;;19.03;61.78;99218.41;5057382;28;20051;-79
2022/11/02 05:36:31;;;;;;;6.55;4.70;;;19.00;92.10;;;19.01;61.68;99226.16;5068459;28;20040;-79
2022/11/02 05:38:58;;;;;;;9.05;5.15;;;19.00;92.10;;;18.99;61.59;99222.91;5041636;28;20564;-79
2022/11/02 05:41:24;;;;;;;5.97;4.85;;;19.00;92.10;;;19.07;61.91;99226.81;5057661;28;20041;-79
2022/11/02 05:43:51;;;;;;;8.70;5.05;;;19.00;92.30;;;19.06;62.34;99225.19;5040643;28;20047;-78
2022/11/02 05:46:17;;;;;;;6.70;4.95;;;19.00;92.30;;;19.05;62.13;99229.06;5044520;28;20048;-78
2022/11/02 05:48:43;;;;;;;6.78;4.72;;;19.00;92.10;;;19.02;61.46;99227.75;5047626;28;20462;-78
2022/11/02 05:51:09;;;;;;;6.40;5.35;;;19.10;92.10;;;19.05;61.11;99227.13;5032822;28;20569;-78
2022/11/02 05:53:37;;;;;;;7.18;4.70;;;19.00;92.10;;;19.04;61.41;99228.25;5018598;28;20044;-78
2022/11/02 05:56:05;;;;;;;6.85;5.03;;;18.90;92.10;;;19.02;61.73;99232.44;5059550;28;20045;-78
2022/11/02 05:58:32;;;;;;;6.35;4.30;;;19.00;92.10;;;19.01;61.74;99234.41;5047795;28;20036;-78
2022/11/02 06:01:02;;;;;;;7.68;4.35;;;19.00;92.10;;;19.04;61.74;99238.44;5042759;28;20043;-78
2022/11/02 06:03:28;;;;;;;5.28;4.10;;;19.00;92.10;;;19.08;61.79;99231.16;5061532;28;20510;-78
2022/11/02 06:06:05;;;;;;;6.50;5.18;;;19.10;92.20;;;19.11;61.88;99230.53;5019365;28;20045;-78
2022/11/02 06:08:32;;;;;;;5.50;4.15;;;19.10;92.20;;;19.09;61.99;99238.31;5032388;28;20052;-78
2022/11/02 06:11:11;;;;;;;7.57;5.05;;;19.10;92.20;;;19.06;61.65;99241.69;5044493;28;20036;-78
2022/11/02 06:13:38;;;;;;;6.03;4.50;;;19.10;92.20;;;19.07;61.63;99243.31;5048855;28;20138;-78
2022/11/02 06:16:06;;;;;;;6.53;4.57;;;19.10;92.20;;;19.09;61.56;99252.03;5046665;28;20728;-78
2022/11/02 06:18:32;;;;;;;7.60;4.32;;;19.10;92.20;;;19.08;61.70;99247.66;5038000;28;20047;-78
2022/11/02 06:20:58;;;;;;;6.10;4.78;;;19.10;92.20;;;19.13;61.95;99244.75;5017051;28;20128;-78
2022/11/02 06:23:25;;;;;;;5.97;4.13;;;19.10;92.20;;;19.13;62.05;99244.75;5038378;28;20055;-78
2022/11/02 06:25:53;;;;;;;5.65;4.05;;;19.10;92.20;;;19.11;61.67;99252.53;5044662;28;20238;-78
2022/11/02 06:28:19;;;;;;;5.10;3.88;;;19.10;92.20;;;19.08;61.70;99244.91;5041350;28;20098;-78
2022/11/02 06:30:45;;;;;;;6.95;4.75;;;19.10;92.20;;;19.11;61.71;99251.72;5029775;28;20064;-78
2022/11/02 06:33:11;;;;;;;5.60;4.05;;;19.10;92.20;;;19.09;61.76;99250.09;5065046;28;20041;-78
2022/11/02 06:35:37;;;;;;;7.05;4.68;;;19.10;92.20;;;19.10;61.90;99253.66;5035252;28;20056;-78
2022/11/02 06:38:03;;;;;;;5.53;4.22;;;19.10;92.20;;;19.18;62.01;99247.38;5017770;28;20040;-78
2022/11/02 06:40:29;;;;;;;6.78;4.35;;;19.20;92.20;;;19.20;61.90;99258.06;5044527;28;20484;-78
2022/11/02 06:42:56;;;;;;;5.85;4.07;;;19.20;92.20;;;19.15;61.39;99255.44;5017463;28;20041;-78
2022/11/02 06:45:23;;;;;;;4.18;3.72;;;19.20;92.20;;;19.16;61.54;99262.56;5046003;28;20102;-78
2022/11/02 06:47:49;;;;;;;7.90;4.85;;;19.10;92.20;;;19.13;61.51;99266.75;5045645;28;20040;-78
2022/11/02 06:50:15;;;;;;;6.25;4.57;;;19.10;92.20;;;19.13;61.54;99265.94;5035013;28;20044;-78
2022/11/02 06:52:46;;;;;;;6.15;4.50;;;19.10;92.20;;;19.15;62.16;99263.69;5022558;28;20445;-78
2022/11/02 06:55:13;;;;;;;4.47;3.80;;;19.20;92.20;;;19.17;61.89;99259.50;5046580;28;20423;-78
2022/11/02 06:57:40;;;;;;;4.45;4.05;;;19.20;92.20;;;19.14;62.05;99262.09;5034910;28;20056;-77
2022/11/02 07:00:11;;;;;;;5.97;4.50;;;19.20;92.20;;;19.14;61.57;99265.66;5033067;28;20047;-79
2022/11/02 07:02:38;;;;;;;;;;;19.10;92.10;;;19.14;61.73;99253.84;5044083;28;20036;-78
2022/11/02 07:05:05;;;;;;;8.25;4.55;;;19.10;92.20;;;19.15;61.56;99258.19;5064016;28;20446;-78
2022/11/02 07:07:31;;;;;;;5.75;5.18;;;19.20;92.20;;;19.15;61.66;99247.19;5043420;28;20040;-78
2022/11/02 07:09:57;;;;;;;4.85;4.15;;;19.10;92.20;;;19.17;62.21;99255.94;5030257;28;20046;-78
2022/11/02 07:12:23;;;;;;;5.20;3.85;;;19.20;92.20;;;19.22;61.86;99244.78;5063087;28;20532;-78
2022/11/02 07:14:49;;;;;;;4.55;3.83;;;19.20;92.20;;;19.22;61.42;99256.59;5042505;28;20044;-78
2022/11/02 07:17:15;;;;;;;4.80;3.88;;;19.20;92.20;;;19.22;61.17;99251.09;5050340;28;20110;-78
2022/11/02 07:19:41;;;;;;;4.28;3.67;;;19.20;92.20;;;19.22;61.29;99244.78;5061090;28;20040;-79
2022/11/02 07:22:08;;;;;;;7.20;5.20;;;19.20;92.20;;;19.24;61.00;99246.09;5036486;28;20546;-79
2022/11/02 07:24:34;;;;;;;4.85;4.35;;;19.20;92.10;;;19.25;61.36;99247.72;5046952;28;20048;-78
2022/11/02 07:27:00;;;;;;;5.80;4.85;;;19.20;92.20;;;19.29;61.40;99234.94;5050699;28;20040;-79
2022/11/02 07:29:29;;;;;;;4.65;3.75;;;19.30;92.30;;;19.29;61.45;99243.19;5021029;28;20049;-79
2022/11/02 07:31:55;;;;;;;4.63;4.10;;;19.20;92.20;;;19.28;61.10;99240.75;5053105;28;20545;-79
2022/11/02 07:34:21;;;;;;;5.13;4.22;;;19.30;92.10;;;19.26;61.01;99241.09;5021398;28;20051;-79
2022/11/02 07:36:47;;;;;;;5.80;3.90;;;19.20;92.00;;;19.29;60.75;99229.44;5034560;28;20112;-79
2022/11/02 07:39:13;;;;;;;5.47;3.95;;;19.30;92.10;;;19.28;60.96;99238.84;5053186;28;20352;-79
2022/11/02 07:41:39;;;;;;;5.03;4.15;;;19.30;92.00;;;19.30;61.17;99244.81;5039419;28;20113;-79
2022/11/02 07:44:06;;;;;;;7.20;4.05;;;19.30;92.10;;;19.34;60.87;99241.44;5053469;28;20041;-79
2022/11/02 07:46:32;;;;;;;4.78;3.75;;;19.30;92.00;;;19.33;60.75;99235.09;5039996;28;20040;-79
2022/11/02 07:48:58;;;;;;;4.75;3.88;;;19.40;92.00;;;19.35;60.53;99238.34;5046703;28;20049;-79
2022/11/02 07:51:24;;;;;;;4.43;4.03;;;19.30;92.00;;;19.37;60.49;99251.78;5034563;28;20488;-78
2022/11/02 07:53:50;;;;;;;5.50;4.50;;;19.40;92.00;;;19.36;60.51;99245.50;5035778;28;20313;-79
2022/11/02 07:56:17;;;;;;;5.18;4.05;;;19.40;92.40;;;19.38;60.63;99254.19;5064153;28;20075;-79
2022/11/02 07:58:42;;;;;;;4.75;4.25;;;19.40;92.20;;;19.39;60.61;99244.03;5040391;28;20041;-79
2022/11/02 08:01:09;;;;;;;7.20;4.63;;;19.40;92.10;;;19.36;61.06;99245.50;5036090;28;20048;-79
2022/11/02 08:03:35;;;;;;;4.55;3.80;;;19.40;92.00;;;19.35;60.72;99254.03;5054131;28;20063;-79
2022/11/02 08:06:04;;;;;;;6.28;4.28;;;19.40;92.00;;;19.38;60.43;99245.94;5033697;28;20627;-79
2022/11/02 08:08:30;;;;;;;4.80;4.40;;;19.40;92.00;;;19.37;60.37;99249.84;5018038;28;20040;-79
2022/11/02 08:11:05;;;;;;;5.07;3.60;;;19.40;91.90;;;19.39;60.39;99244.84;5056317;28;20055;-79
2022/11/02 08:13:31;;;;;;;7.50;4.82;;;19.40;91.90;;;19.41;60.47;99237.06;5038965;28;20094;-79
2022/11/02 08:15:57;;;;;;;6.70;4.20;;;19.40;92.00;;;19.42;60.67;99251.63;5050784;28;20040;-79
2022/11/02 08:18:43;;;;;;;5.53;3.97;;;19.40;92.00;;;19.41;60.63;99247.25;5046070;28;20056;-79
2022/11/02 08:21:09;;;;;;;4.88;4.00;;;19.50;91.90;;;19.42;60.25;99243.38;5038150;28;20500;-79
2022/11/02 08:23:35;;;;;;;6.25;4.03;;;19.50;91.90;;;19.42;60.31;99248.88;5052053;28;20052;-79
2022/11/02 08:26:01;;;;;;;4.40;4.00;;;19.50;91.90;;;19.43;60.17;99250.50;5033112;28;20045;-79
2022/11/02 08:28:31;;;;;;;8.40;5.10;;;19.40;91.80;;;19.44;60.53;99244.69;5031453;28;20037;-79
2022/11/02 08:30:58;;;;;;;5.18;4.65;;;19.50;91.90;;;19.43;60.46;99239.50;5030795;28;20043;-79
2022/11/02 08:33:24;;;;;;;6.18;4.70;;;19.50;91.90;;;19.48;60.27;99242.88;5044186;28;20056;-79
2022/11/02 08:35:50;;;;;;;5.40;4.35;;;19.50;91.90;;;19.49;60.11;99240.97;5036074;28;20048;-78
2022/11/02 08:38:17;;;;;;;5.70;4.70;;;19.50;91.80;;;19.49;60.01;99239.03;5050469;28;20040;-79
2022/11/02 08:40:46;;;;;;;5.38;4.40;;;19.50;91.80;;;19.53;59.76;99244.69;5034804;28;20102;-79
2022/11/02 08:43:13;;;;;;;4.53;4.07;;;19.50;91.80;;;19.52;59.79;99237.56;5044644;28;20041;-79
2022/11/02 08:45:41;;;;;;;4.40;4.00;;;19.50;91.80;;;19.53;60.01;99236.44;5025957;28;20501;-79
2022/11/02 08:48:08;;;;;;;5.13;4.63;;;19.50;91.80;;;19.52;60.03;99237.56;5015395;28;20087;-79
2022/11/02 08:50:34;;;;;;;4.72;4.30;;;19.60;91.80;;;19.49;60.25;99239.03;5071582;28;20048;-79
2022/11/02 08:53:00;;;;;;;6.57;4.50;;;19.60;91.80;;;19.48;60.13;99242.09;5004854;28;20044;-79
2022/11/02 08:55:27;;;;;;;8.40;5.32;;;19.60;91.80;;;19.51;59.96;99235.94;5034075;28;20452;-79
2022/11/02 08:57:56;;;;;;;4.03;3.63;;;19.60;91.80;;;19.51;59.73;99238.69;5046865;28;20041;-79
2022/11/02 09:00:28;;;;;;;5.03;3.67;;;19.60;91.80;;;19.53;59.68;99237.22;5031176;28;20053;-79
2022/11/02 09:03:12;;;;;;;4.75;4.32;;;19.60;91.80;;;19.52;60.16;99241.13;5033872;28;20442;-79
2022/11/02 09:05:42;;;;;;;4.53;4.07;;;19.60;91.90;;;19.52;60.04;99235.63;5048641;28;20483;-79
2022/11/02 09:08:17;;;;;;;5.47;3.88;;;19.60;91.90;;;19.52;60.03;99232.06;5020823;28;20055;-79
2022/11/02 09:10:45;;;;;;;4.93;4.45;;;19.60;91.80;;;19.53;59.88;99228.16;5021948;28;20391;-79
2022/11/02 09:13:13;;;;;;;4.00;3.58;;;19.60;91.70;;;19.53;59.86;99226.22;5036527;28;20054;-79
2022/11/02 09:15:39;;;;;;;4.95;4.45;;;19.60;91.70;;;19.54;59.62;99221.56;5034662;28;20132;-79
2022/11/02 09:18:05;;;;;;;6.97;4.00;;;19.60;91.70;;;19.56;60.06;99230.28;5055680;28;20047;-79
2022/11/02 09:20:32;;;;;;;4.47;3.80;;;19.60;91.80;;;19.55;60.12;99220.41;5032592;28;20037;-79
2022/11/02 09:22:58;;;;;;;5.18;4.55;;;19.60;91.80;;;19.56;60.12;99221.22;5031824;28;20521;-79
2022/11/02 09:25:24;;;;;;;4.75;3.95;;;19.60;91.70;;;19.55;59.74;99212.16;5050557;28;20515;-79
2022/11/02 09:27:53;;;;;;;4.97;4.47;;;19.60;91.70;;;19.53;59.84;99214.41;5033657;28;20465;-79
2022/11/02 09:30:19;;;;;;;5.07;4.57;;;19.60;91.70;;;19.56;59.81;99212.97;5063467;28;20378;-79
2022/11/02 09:32:59;;;;;;;6.93;4.65;;;19.60;91.70;;;19.60;59.72;99200.19;5021150;28;20037;-79
2022/11/02 09:35:27;;;;;;;4.60;3.85;;;19.60;91.70;;;19.59;59.68;99204.06;5028995;28;20045;-79
2022/11/02 09:37:53;;;;;;;4.10;3.60;;;19.70;91.80;;;19.59;59.74;99202.13;5061862;28;20032;-79
2022/11/02 09:40:22;;;;;;;5.07;4.57;;;19.70;91.70;;;19.56;59.82;99201.94;5032195;28;20036;-79
2022/11/02 09:43:00;;;;;;;5.20;4.13;;;19.70;91.60;;;19.58;59.62;99200.50;5037126;28;20048;-79
2022/11/02 09:45:27;;;;;;;6.93;4.25;;;19.70;91.60;;;19.61;59.26;99199.84;5064722;28;20053;-79
2022/11/02 09:48:01;;;;;;;5.78;4.57;;;19.70;91.60;;;19.61;59.42;99199.03;5060769;28;20053;-79
2022/11/02 09:50:43;;;;;;;5.45;4.40;;;19.70;91.60;;;19.65;59.66;99194.53;5020218;28;20055;-79
2022/11/02 09:53:15;;;;;;;5.38;4.63;;;19.70;91.70;;;19.64;59.60;99193.72;5040995;28;20101;-79
2022/11/02 09:55:56;;;;;;;4.82;3.97;;;19.70;91.60;;;19.66;59.30;99194.19;5019443;28;20113;-79
2022/11/02 09:58:29;;;;;;;7.97;4.72;;;19.80;91.60;;;19.63;59.33;99194.84;5033858;28;20075;-79
2022/11/02 10:00:56;;;;;;;5.20;4.05;;;19.80;91.60;;;19.65;59.21;99192.56;5031030;28;20381;-79
2022/11/02 10:04:00;;;;;;;4.88;4.38;;;19.80;91.60;;;19.64;59.39;99185.47;5037094;28;20036;-79
2022/11/02 10:06:29;;;;;;;4.03;3.63;;;19.80;91.60;;;19.65;59.36;99189.81;5063441;28;20093;-79
2022/11/02 10:09:10;;;;;;;4.13;3.72;;;19.80;91.60;;;19.67;59.36;99187.59;5041649;28;20081;-79
2022/11/02 10:11:59;;;;;;;5.72;4.55;;;19.80;91.60;;;19.66;59.39;99198.88;5066193;28;20451;-79
2022/11/02 10:14:59;;;;;;;4.75;4.20;;;19.80;91.60;;;19.64;59.63;99190.13;5038445;28;20455;-79
2022/11/02 10:17:28;;;;;;;4.68;4.18;;;19.80;91.50;;;19.67;58.96;99184.84;5049199;28;20451;-79
2022/11/02 10:19:56;;;;;;;5.13;4.53;;;19.80;91.60;;;19.69;59.01;99187.25;5032063;28;20407;-79
2022/11/02 10:22:32;;;;;;;4.85;4.35;;;19.80;91.50;;;19.70;58.94;99177.88;5023294;28;20036;-79
2022/11/02 10:24:59;;;;;;;4.82;4.32;;;19.80;91.60;;;19.70;59.06;99175.91;5032793;28;20047;-78
2022/11/02 10:27:28;;;;;;;4.90;4.10;;;19.80;91.50;;;19.70;59.15;99181.44;5044290;28;20076;-79
2022/11/02 10:30:10;;;;;;;6.20;4.60;;;19.90;91.60;;;19.72;58.86;99176.41;5051201;28;20430;-79
2022/11/02 10:32:37;;;;;;;4.88;3.90;;;19.80;91.50;;;19.70;59.02;99175.13;5062388;28;20040;-79
2022/11/02 10:35:06;;;;;;;5.20;4.70;;;19.80;91.40;;;19.71;58.65;99173.97;5052856;28;20048;-79
2022/11/02 10:37:44;;;;;;;4.72;3.97;;;19.90;91.50;;;19.74;58.96;99170.56;5022013;28;20037;-79
2022/11/02 10:40:41;;;;;;;4.63;4.00;;;19.90;91.50;;;19.77;58.71;99180.94;5050495;28;20056;-79
2022/11/02 10:43:44;;;;;;;5.78;4.75;;;19.90;91.50;;;19.74;58.87;99173.31;5044771;28;20455;-79